sensor_id;sensor_type;location;lat;lon;timestamp;temperature;humidity
10583;DHT22;33679;51.218;6.786;2023-04-06T00:00:04;10.00;97.30
10583;DHT22;33679;51.218;6.786;2023-04-06T00:02:40;10.00;97.40
10583;DHT22;33679;51.218;6.786;2023-04-06T00:05:12;9.90;97.50
10583;DHT22;33679;51.218;6.786;2023-04-06T00:07:45;9.90;97.60
10583;DHT22;33679;51.218;6.786;2023-04-06T00:10:19;9.90;97.70
10583;DHT22;33679;51.218;6.786;2023-04-06T00:12:52;9.90;97.80
10583;DHT22;33679;51.218;6.786;2023-04-06T00:15:25;9.90;97.80
10583;DHT22;33679;51.218;6.786;2023-04-06T00:17:58;9.90;98.00
10583;DHT22;33679;51.218;6.786;2023-04-06T00:20:35;9.80;98.00
10583;DHT22;33679;51.218;6.786;2023-04-06T00:23:11;9.80;98.10
10583;DHT22;33679;51.218;6.786;2023-04-06T00:25:44;9.60;98.10
10583;DHT22;33679;51.218;6.786;2023-04-06T00:28:17;9.60;98.20
10583;DHT22;33679;51.218;6.786;2023-04-06T00:30:55;9.60;98.30
10583;DHT22;33679;51.218;6.786;2023-04-06T00:33:28;9.50;98.30
10583;DHT22;33679;51.218;6.786;2023-04-06T00:36:01;9.50;98.40
10583;DHT22;33679;51.218;6.786;2023-04-06T00:38:33;9.50;98.50
10583;DHT22;33679;51.218;6.786;2023-04-06T00:41:08;9.50;98.70
10583;DHT22;33679;51.218;6.786;2023-04-06T00:43:40;9.40;98.70
10583;DHT22;33679;51.218;6.786;2023-04-06T00:46:14;9.40;98.90
10583;DHT22;33679;51.218;6.786;2023-04-06T00:48:46;9.50;99.00
10583;DHT22;33679;51.218;6.786;2023-04-06T00:51:20;9.40;99.20
10583;DHT22;33679;51.218;6.786;2023-04-06T00:53:53;9.40;99.30
10583;DHT22;33679;51.218;6.786;2023-04-06T00:56:29;9.40;99.40
10583;DHT22;33679;51.218;6.786;2023-04-06T00:59:01;9.30;99.50
10583;DHT22;33679;51.218;6.786;2023-04-06T01:01:35;9.30;99.60
10583;DHT22;33679;51.218;6.786;2023-04-06T01:04:17;9.20;99.60
10583;DHT22;33679;51.218;6.786;2023-04-06T01:06:50;9.20;99.60
10583;DHT22;33679;51.218;6.786;2023-04-06T01:09:23;9.20;99.70
10583;DHT22;33679;51.218;6.786;2023-04-06T01:12:01;9.20;99.80
10583;DHT22;33679;51.218;6.786;2023-04-06T01:14:36;9.20;99.80
10583;DHT22;33679;51.218;6.786;2023-04-06T01:17:09;9.20;99.80
10583;DHT22;33679;51.218;6.786;2023-04-06T01:19:41;9.20;99.80
10583;DHT22;33679;51.218;6.786;2023-04-06T01:22:24;9.20;99.90
10583;DHT22;33679;51.218;6.786;2023-04-06T01:25:03;9.20;99.90
10583;DHT22;33679;51.218;6.786;2023-04-06T01:27:48;9.10;99.90
10583;DHT22;33679;51.218;6.786;2023-04-06T01:30:26;9.10;99.90
10583;DHT22;33679;51.218;6.786;2023-04-06T01:33:05;9.10;99.90
10583;DHT22;33679;51.218;6.786;2023-04-06T01:35:53;9.00;99.90
10583;DHT22;33679;51.218;6.786;2023-04-06T01:38:30;9.00;99.90
10583;DHT22;33679;51.218;6.786;2023-04-06T01:41:05;9.00;99.90
10583;DHT22;33679;51.218;6.786;2023-04-06T01:43:49;9.00;99.90
10583;DHT22;33679;51.218;6.786;2023-04-06T01:46:26;9.00;99.90
10583;DHT22;33679;51.218;6.786;2023-04-06T01:49:00;8.90;99.90
10583;DHT22;33679;51.218;6.786;2023-04-06T01:51:39;8.90;99.90
10583;DHT22;33679;51.218;6.786;2023-04-06T01:54:17;8.80;99.90
10583;DHT22;33679;51.218;6.786;2023-04-06T01:57:15;8.70;99.90
10583;DHT22;33679;51.218;6.786;2023-04-06T01:59:56;8.70;99.90
10583;DHT22;33679;51.218;6.786;2023-04-06T02:02:49;8.70;99.90
10583;DHT22;33679;51.218;6.786;2023-04-06T02:05:29;8.70;99.90
10583;DHT22;33679;51.218;6.786;2023-04-06T02:08:03;8.70;99.90
10583;DHT22;33679;51.218;6.786;2023-04-06T02:10:40;8.70;99.90
10583;DHT22;33679;51.218;6.786;2023-04-06T02:13:22;8.60;99.90
10583;DHT22;33679;51.218;6.786;2023-04-06T02:15:57;8.60;99.90
10583;DHT22;33679;51.218;6.786;2023-04-06T02:18:31;8.70;99.90
10583;DHT22;33679;51.218;6.786;2023-04-06T02:21:04;8.60;99.90
10583;DHT22;33679;51.218;6.786;2023-04-06T02:23:37;8.50;99.90
10583;DHT22;33679;51.218;6.786;2023-04-06T02:26:10;8.50;99.90
10583;DHT22;33679;51.218;6.786;2023-04-06T02:28:43;8.60;99.90
10583;DHT22;33679;51.218;6.786;2023-04-06T02:31:18;8.50;99.90
10583;DHT22;33679;51.218;6.786;2023-04-06T02:33:50;8.50;99.90
10583;DHT22;33679;51.218;6.786;2023-04-06T02:36:24;8.50;99.90
10583;DHT22;33679;51.218;6.786;2023-04-06T02:38:57;8.50;99.90
10583;DHT22;33679;51.218;6.786;2023-04-06T02:41:31;8.40;99.90
10583;DHT22;33679;51.218;6.786;2023-04-06T02:44:07;8.40;99.90
10583;DHT22;33679;51.218;6.786;2023-04-06T02:46:44;8.40;99.90
10583;DHT22;33679;51.218;6.786;2023-04-06T02:49:17;8.30;99.90
10583;DHT22;33679;51.218;6.786;2023-04-06T02:51:50;8.40;99.90
10583;DHT22;33679;51.218;6.786;2023-04-06T02:54:27;8.40;99.90
10583;DHT22;33679;51.218;6.786;2023-04-06T02:57:01;8.40;99.90
10583;DHT22;33679;51.218;6.786;2023-04-06T02:59:41;8.30;99.90
10583;DHT22;33679;51.218;6.786;2023-04-06T03:02:22;8.30;99.90
10583;DHT22;33679;51.218;6.786;2023-04-06T03:05:03;8.30;99.90
10583;DHT22;33679;51.218;6.786;2023-04-06T03:07:41;8.40;99.90
10583;DHT22;33679;51.218;6.786;2023-04-06T03:10:19;8.30;99.90
10583;DHT22;33679;51.218;6.786;2023-04-06T03:12:55;8.30;99.90
10583;DHT22;33679;51.218;6.786;2023-04-06T03:15:31;8.30;99.90
10583;DHT22;33679;51.218;6.786;2023-04-06T03:18:15;8.30;99.90
10583;DHT22;33679;51.218;6.786;2023-04-06T03:20:52;8.30;99.90
10583;DHT22;33679;51.218;6.786;2023-04-06T03:23:29;8.20;99.90
10583;DHT22;33679;51.218;6.786;2023-04-06T03:26:05;8.20;99.90
10583;DHT22;33679;51.218;6.786;2023-04-06T03:28:39;8.20;99.90
10583;DHT22;33679;51.218;6.786;2023-04-06T03:31:15;8.20;99.90
10583;DHT22;33679;51.218;6.786;2023-04-06T03:33:53;8.20;99.90
10583;DHT22;33679;51.218;6.786;2023-04-06T03:36:30;8.20;99.90
10583;DHT22;33679;51.218;6.786;2023-04-06T03:39:04;8.20;99.90
10583;DHT22;33679;51.218;6.786;2023-04-06T03:41:39;8.20;99.90
10583;DHT22;33679;51.218;6.786;2023-04-06T03:44:36;8.10;99.90
10583;DHT22;33679;51.218;6.786;2023-04-06T03:47:11;8.20;99.90
10583;DHT22;33679;51.218;6.786;2023-04-06T03:49:44;8.10;99.90
10583;DHT22;33679;51.218;6.786;2023-04-06T03:52:18;8.20;99.90
10583;DHT22;33679;51.218;6.786;2023-04-06T03:54:51;8.20;99.90
10583;DHT22;33679;51.218;6.786;2023-04-06T03:57:23;8.10;99.90
10583;DHT22;33679;51.218;6.786;2023-04-06T03:59:57;8.20;99.90
10583;DHT22;33679;51.218;6.786;2023-04-06T04:02:30;8.10;99.90
10583;DHT22;33679;51.218;6.786;2023-04-06T04:05:04;8.20;99.90
10583;DHT22;33679;51.218;6.786;2023-04-06T04:07:36;8.10;99.90
10583;DHT22;33679;51.218;6.786;2023-04-06T04:10:11;8.10;99.90
10583;DHT22;33679;51.218;6.786;2023-04-06T04:12:43;8.10;99.90
10583;DHT22;33679;51.218;6.786;2023-04-06T04:15:17;8.10;99.90
10583;DHT22;33679;51.218;6.786;2023-04-06T04:17:52;8.10;99.90
10583;DHT22;33679;51.218;6.786;2023-04-06T04:20:25;8.00;99.90
10583;DHT22;33679;51.218;6.786;2023-04-06T04:22:58;8.10;99.90
10583;DHT22;33679;51.218;6.786;2023-04-06T04:25:33;8.00;99.90
10583;DHT22;33679;51.218;6.786;2023-04-06T04:28:05;8.00;99.90
10583;DHT22;33679;51.218;6.786;2023-04-06T04:30:40;8.00;99.90
10583;DHT22;33679;51.218;6.786;2023-04-06T04:33:15;7.90;99.90
10583;DHT22;33679;51.218;6.786;2023-04-06T04:35:49;7.90;99.90
10583;DHT22;33679;51.218;6.786;2023-04-06T04:38:25;7.90;99.90
10583;DHT22;33679;51.218;6.786;2023-04-06T04:41:00;7.90;99.90
10583;DHT22;33679;51.218;6.786;2023-04-06T04:43:33;7.90;99.90
10583;DHT22;33679;51.218;6.786;2023-04-06T04:46:10;7.80;99.90
10583;DHT22;33679;51.218;6.786;2023-04-06T04:48:45;7.90;99.90
10583;DHT22;33679;51.218;6.786;2023-04-06T04:51:18;7.80;99.90
10583;DHT22;33679;51.218;6.786;2023-04-06T04:54:01;7.80;99.90
10583;DHT22;33679;51.218;6.786;2023-04-06T04:56:36;7.80;99.90
10583;DHT22;33679;51.218;6.786;2023-04-06T04:59:19;7.80;99.90
10583;DHT22;33679;51.218;6.786;2023-04-06T05:02:01;7.80;99.90
10583;DHT22;33679;51.218;6.786;2023-04-06T05:04:43;7.80;99.90
10583;DHT22;33679;51.218;6.786;2023-04-06T05:07:23;7.80;99.90
10583;DHT22;33679;51.218;6.786;2023-04-06T05:09:58;7.70;99.90
10583;DHT22;33679;51.218;6.786;2023-04-06T05:12:34;7.80;99.90
10583;DHT22;33679;51.218;6.786;2023-04-06T05:15:11;7.70;99.90
10583;DHT22;33679;51.218;6.786;2023-04-06T05:17:45;7.80;99.90
10583;DHT22;33679;51.218;6.786;2023-04-06T05:20:22;7.80;99.90
10583;DHT22;33679;51.218;6.786;2023-04-06T05:22:56;7.80;99.90
10583;DHT22;33679;51.218;6.786;2023-04-06T05:25:29;7.80;99.90
10583;DHT22;33679;51.218;6.786;2023-04-06T05:28:08;7.80;99.90
10583;DHT22;33679;51.218;6.786;2023-04-06T05:30:43;7.80;99.90
10583;DHT22;33679;51.218;6.786;2023-04-06T05:33:19;7.90;99.90
10583;DHT22;33679;51.218;6.786;2023-04-06T05:36:06;7.90;99.90
10583;DHT22;33679;51.218;6.786;2023-04-06T05:38:43;7.90;99.90
10583;DHT22;33679;51.218;6.786;2023-04-06T05:41:34;7.80;99.90
10583;DHT22;33679;51.218;6.786;2023-04-06T05:44:07;7.90;99.90
10583;DHT22;33679;51.218;6.786;2023-04-06T05:46:40;7.90;99.90
10583;DHT22;33679;51.218;6.786;2023-04-06T05:49:18;8.00;99.90
10583;DHT22;33679;51.218;6.786;2023-04-06T05:51:51;8.00;99.90
10583;DHT22;33679;51.218;6.786;2023-04-06T05:54:24;8.10;99.90
10583;DHT22;33679;51.218;6.786;2023-04-06T05:57:03;8.10;99.90
10583;DHT22;33679;51.218;6.786;2023-04-06T05:59:36;8.10;99.90
10583;DHT22;33679;51.218;6.786;2023-04-06T06:02:10;8.20;99.90
10583;DHT22;33679;51.218;6.786;2023-04-06T06:04:49;8.20;99.90
10583;DHT22;33679;51.218;6.786;2023-04-06T06:07:23;8.60;99.90
10583;DHT22;33679;51.218;6.786;2023-04-06T06:10:08;8.60;99.90
10583;DHT22;33679;51.218;6.786;2023-04-06T06:12:41;8.60;99.90
10583;DHT22;33679;51.218;6.786;2023-04-06T06:15:14;8.60;99.90
10583;DHT22;33679;51.218;6.786;2023-04-06T06:17:51;8.60;99.90
10583;DHT22;33679;51.218;6.786;2023-04-06T06:20:26;8.60;99.90
10583;DHT22;33679;51.218;6.786;2023-04-06T06:22:59;8.60;99.90
10583;DHT22;33679;51.218;6.786;2023-04-06T06:25:32;8.60;99.90
10583;DHT22;33679;51.218;6.786;2023-04-06T06:28:05;9.00;99.90
10583;DHT22;33679;51.218;6.786;2023-04-06T06:30:38;9.10;99.90
10583;DHT22;33679;51.218;6.786;2023-04-06T06:33:11;9.10;99.90
10583;DHT22;33679;51.218;6.786;2023-04-06T06:35:49;9.10;99.90
10583;DHT22;33679;51.218;6.786;2023-04-06T06:38:23;9.00;99.90
10583;DHT22;33679;51.218;6.786;2023-04-06T06:40:56;9.00;99.90
10583;DHT22;33679;51.218;6.786;2023-04-06T06:43:36;8.90;99.90
10583;DHT22;33679;51.218;6.786;2023-04-06T06:46:16;8.90;99.90
10583;DHT22;33679;51.218;6.786;2023-04-06T06:48:49;9.00;99.90
10583;DHT22;33679;51.218;6.786;2023-04-06T06:51:25;9.00;99.90
10583;DHT22;33679;51.218;6.786;2023-04-06T06:53:58;9.10;99.90
10583;DHT22;33679;51.218;6.786;2023-04-06T06:56:31;9.10;99.90
10583;DHT22;33679;51.218;6.786;2023-04-06T06:59:07;9.20;99.90
10583;DHT22;33679;51.218;6.786;2023-04-06T07:01:55;9.20;99.90
10583;DHT22;33679;51.218;6.786;2023-04-06T07:04:30;9.30;99.90
10583;DHT22;33679;51.218;6.786;2023-04-06T07:07:27;9.40;99.90
10583;DHT22;33679;51.218;6.786;2023-04-06T07:10:00;9.50;99.90
10583;DHT22;33679;51.218;6.786;2023-04-06T07:12:33;9.60;99.90
10583;DHT22;33679;51.218;6.786;2023-04-06T07:15:08;9.60;99.90
10583;DHT22;33679;51.218;6.786;2023-04-06T07:17:45;9.70;99.90
10583;DHT22;33679;51.218;6.786;2023-04-06T07:20:39;9.80;99.90
10583;DHT22;33679;51.218;6.786;2023-04-06T07:23:28;9.90;99.90
10583;DHT22;33679;51.218;6.786;2023-04-06T07:26:01;10.20;99.90
10583;DHT22;33679;51.218;6.786;2023-04-06T07:28:35;10.30;99.90
10583;DHT22;33679;51.218;6.786;2023-04-06T07:31:09;10.40;99.90
10583;DHT22;33679;51.218;6.786;2023-04-06T07:33:44;10.40;99.90
10583;DHT22;33679;51.218;6.786;2023-04-06T07:36:16;10.40;99.90
10583;DHT22;33679;51.218;6.786;2023-04-06T07:38:50;10.50;99.90
10583;DHT22;33679;51.218;6.786;2023-04-06T07:41:23;10.60;99.90
10583;DHT22;33679;51.218;6.786;2023-04-06T07:43:56;10.70;99.90
10583;DHT22;33679;51.218;6.786;2023-04-06T07:46:29;10.80;99.90
10583;DHT22;33679;51.218;6.786;2023-04-06T07:49:03;10.90;99.90
10583;DHT22;33679;51.218;6.786;2023-04-06T07:51:38;11.00;99.90
10583;DHT22;33679;51.218;6.786;2023-04-06T07:54:13;11.10;99.90
10583;DHT22;33679;51.218;6.786;2023-04-06T07:56:46;11.20;99.90
10583;DHT22;33679;51.218;6.786;2023-04-06T07:59:19;11.30;99.90
10583;DHT22;33679;51.218;6.786;2023-04-06T08:01:57;11.40;99.60
10583;DHT22;33679;51.218;6.786;2023-04-06T08:04:31;11.50;99.50
10583;DHT22;33679;51.218;6.786;2023-04-06T08:07:06;11.50;99.50
10583;DHT22;33679;51.218;6.786;2023-04-06T08:09:40;11.50;99.40
10583;DHT22;33679;51.218;6.786;2023-04-06T08:12:15;11.60;99.40
10583;DHT22;33679;51.218;6.786;2023-04-06T08:14:48;11.70;99.40
10583;DHT22;33679;51.218;6.786;2023-04-06T08:17:25;11.80;99.40
10583;DHT22;33679;51.218;6.786;2023-04-06T08:20:19;11.90;99.30
10583;DHT22;33679;51.218;6.786;2023-04-06T08:23:01;11.90;99.40
10583;DHT22;33679;51.218;6.786;2023-04-06T08:25:41;12.00;99.40
10583;DHT22;33679;51.218;6.786;2023-04-06T08:28:16;12.10;99.30
10583;DHT22;33679;51.218;6.786;2023-04-06T08:30:49;12.10;99.20
10583;DHT22;33679;51.218;6.786;2023-04-06T08:33:22;12.20;99.20
10583;DHT22;33679;51.218;6.786;2023-04-06T08:35:59;12.20;99.20
10583;DHT22;33679;51.218;6.786;2023-04-06T08:38:39;12.30;99.30
10583;DHT22;33679;51.218;6.786;2023-04-06T08:41:16;12.40;99.30
10583;DHT22;33679;51.218;6.786;2023-04-06T08:43:58;12.50;99.10
10583;DHT22;33679;51.218;6.786;2023-04-06T08:46:33;12.50;99.40
10583;DHT22;33679;51.218;6.786;2023-04-06T08:49:10;12.50;99.20
10583;DHT22;33679;51.218;6.786;2023-04-06T08:51:43;12.50;99.00
10583;DHT22;33679;51.218;6.786;2023-04-06T08:54:17;12.50;99.10
10583;DHT22;33679;51.218;6.786;2023-04-06T08:56:53;12.50;99.00
10583;DHT22;33679;51.218;6.786;2023-04-06T08:59:27;12.60;99.10
10583;DHT22;33679;51.218;6.786;2023-04-06T09:02:03;12.60;99.20
10583;DHT22;33679;51.218;6.786;2023-04-06T09:04:37;12.70;99.00
10583;DHT22;33679;51.218;6.786;2023-04-06T09:07:10;12.80;98.90
10583;DHT22;33679;51.218;6.786;2023-04-06T09:09:49;12.90;98.70
10583;DHT22;33679;51.218;6.786;2023-04-06T09:12:29;12.90;99.00
10583;DHT22;33679;51.218;6.786;2023-04-06T09:15:06;13.00;98.90
10583;DHT22;33679;51.218;6.786;2023-04-06T09:17:49;13.10;98.90
10583;DHT22;33679;51.218;6.786;2023-04-06T09:20:25;13.10;98.80
10583;DHT22;33679;51.218;6.786;2023-04-06T09:22:59;13.20;98.80
10583;DHT22;33679;51.218;6.786;2023-04-06T09:25:32;13.30;98.70
10583;DHT22;33679;51.218;6.786;2023-04-06T09:28:07;13.40;98.60
10583;DHT22;33679;51.218;6.786;2023-04-06T09:30:48;13.50;98.50
10583;DHT22;33679;51.218;6.786;2023-04-06T09:33:43;13.70;98.40
10583;DHT22;33679;51.218;6.786;2023-04-06T09:36:17;13.80;98.20
10583;DHT22;33679;51.218;6.786;2023-04-06T09:38:57;13.90;98.00
10583;DHT22;33679;51.218;6.786;2023-04-06T09:41:33;14.10;97.90
10583;DHT22;33679;51.218;6.786;2023-04-06T09:44:09;14.10;97.90
10583;DHT22;33679;51.218;6.786;2023-04-06T09:46:46;14.20;97.70
10583;DHT22;33679;51.218;6.786;2023-04-06T09:49:19;14.20;97.60
10583;DHT22;33679;51.218;6.786;2023-04-06T09:51:59;14.30;97.40
10583;DHT22;33679;51.218;6.786;2023-04-06T09:54:45;14.40;97.50
10583;DHT22;33679;51.218;6.786;2023-04-06T09:57:25;14.50;97.60
10583;DHT22;33679;51.218;6.786;2023-04-06T10:03:50;14.80;97.00
10583;DHT22;33679;51.218;6.786;2023-04-06T10:06:27;14.80;97.10
10583;DHT22;33679;51.218;6.786;2023-04-06T10:09:08;14.90;97.00
10583;DHT22;33679;51.218;6.786;2023-04-06T10:11:44;14.90;97.20
10583;DHT22;33679;51.218;6.786;2023-04-06T10:14:17;15.10;97.20
10583;DHT22;33679;51.218;6.786;2023-04-06T10:17:04;15.10;97.10
10583;DHT22;33679;51.218;6.786;2023-04-06T10:19:49;15.30;96.80
10583;DHT22;33679;51.218;6.786;2023-04-06T10:22:34;15.30;96.90
10583;DHT22;33679;51.218;6.786;2023-04-06T10:25:09;15.40;96.90
10583;DHT22;33679;51.218;6.786;2023-04-06T10:27:45;15.50;96.60
10583;DHT22;33679;51.218;6.786;2023-04-06T10:30:17;15.50;96.80
10583;DHT22;33679;51.218;6.786;2023-04-06T10:32:51;15.60;97.00
10583;DHT22;33679;51.218;6.786;2023-04-06T10:35:38;15.60;97.00
10583;DHT22;33679;51.218;6.786;2023-04-06T10:38:22;15.70;97.10
10583;DHT22;33679;51.218;6.786;2023-04-06T10:41:06;15.80;97.10
10583;DHT22;33679;51.218;6.786;2023-04-06T10:43:42;15.80;97.30
10583;DHT22;33679;51.218;6.786;2023-04-06T10:46:29;15.90;97.40
10583;DHT22;33679;51.218;6.786;2023-04-06T10:49:10;16.00;97.30
10583;DHT22;33679;51.218;6.786;2023-04-06T10:51:50;16.10;97.10
10583;DHT22;33679;51.218;6.786;2023-04-06T10:54:25;16.10;97.00
10583;DHT22;33679;51.218;6.786;2023-04-06T10:56:59;16.10;97.10
10583;DHT22;33679;51.218;6.786;2023-04-06T10:59:33;16.10;97.30
10583;DHT22;33679;51.218;6.786;2023-04-06T11:02:07;16.10;97.40
10583;DHT22;33679;51.218;6.786;2023-04-06T11:04:40;16.20;97.40
10583;DHT22;33679;51.218;6.786;2023-04-06T11:07:23;16.30;97.50
10583;DHT22;33679;51.218;6.786;2023-04-06T11:09:56;16.40;97.50
10583;DHT22;33679;51.218;6.786;2023-04-06T11:12:29;16.50;97.50
10583;DHT22;33679;51.218;6.786;2023-04-06T11:15:07;16.50;97.40
10583;DHT22;33679;51.218;6.786;2023-04-06T11:17:40;16.60;97.30
10583;DHT22;33679;51.218;6.786;2023-04-06T11:20:13;16.60;97.40
10583;DHT22;33679;51.218;6.786;2023-04-06T11:22:52;16.60;97.40
10583;DHT22;33679;51.218;6.786;2023-04-06T11:25:27;16.50;97.30
10583;DHT22;33679;51.218;6.786;2023-04-06T11:28:02;16.50;97.50
10583;DHT22;33679;51.218;6.786;2023-04-06T11:30:35;16.40;97.70
10583;DHT22;33679;51.218;6.786;2023-04-06T11:33:08;16.30;97.90
10583;DHT22;33679;51.218;6.786;2023-04-06T11:35:42;16.30;98.10
10583;DHT22;33679;51.218;6.786;2023-04-06T11:38:18;16.30;98.30
10583;DHT22;33679;51.218;6.786;2023-04-06T11:40:55;16.30;98.10
10583;DHT22;33679;51.218;6.786;2023-04-06T11:43:29;16.20;98.10
10583;DHT22;33679;51.218;6.786;2023-04-06T11:46:03;16.20;98.10
10583;DHT22;33679;51.218;6.786;2023-04-06T11:48:47;16.20;98.10
10583;DHT22;33679;51.218;6.786;2023-04-06T11:51:36;16.20;98.30
10583;DHT22;33679;51.218;6.786;2023-04-06T11:54:28;16.30;98.50
10583;DHT22;33679;51.218;6.786;2023-04-06T11:57:04;16.40;98.50
10583;DHT22;33679;51.218;6.786;2023-04-06T11:59:46;16.60;98.50
10583;DHT22;33679;51.218;6.786;2023-04-06T12:02:29;16.60;98.40
10583;DHT22;33679;51.218;6.786;2023-04-06T12:05:12;16.60;98.50
10583;DHT22;33679;51.218;6.786;2023-04-06T12:07:52;16.70;98.90
10583;DHT22;33679;51.218;6.786;2023-04-06T12:10:48;16.80;98.60
10583;DHT22;33679;51.218;6.786;2023-04-06T12:13:37;16.90;98.80
10583;DHT22;33679;51.218;6.786;2023-04-06T12:16:10;17.00;99.00
10583;DHT22;33679;51.218;6.786;2023-04-06T12:18:44;17.00;99.10
10583;DHT22;33679;51.218;6.786;2023-04-06T12:21:19;17.00;99.10
10583;DHT22;33679;51.218;6.786;2023-04-06T12:23:52;17.00;99.10
10583;DHT22;33679;51.218;6.786;2023-04-06T12:26:27;17.10;98.90
10583;DHT22;33679;51.218;6.786;2023-04-06T12:29:01;17.10;98.40
10583;DHT22;33679;51.218;6.786;2023-04-06T12:31:38;17.10;98.30
10583;DHT22;33679;51.218;6.786;2023-04-06T12:34:11;17.10;98.20
10583;DHT22;33679;51.218;6.786;2023-04-06T12:36:44;17.00;98.00
10583;DHT22;33679;51.218;6.786;2023-04-06T12:39:21;17.00;98.20
10583;DHT22;33679;51.218;6.786;2023-04-06T12:41:59;17.00;97.80
10583;DHT22;33679;51.218;6.786;2023-04-06T12:44:35;16.90;97.90
10583;DHT22;33679;51.218;6.786;2023-04-06T12:47:11;16.80;97.80
10583;DHT22;33679;51.218;6.786;2023-04-06T12:49:44;16.70;97.80
10583;DHT22;33679;51.218;6.786;2023-04-06T12:52:24;16.70;97.50
10583;DHT22;33679;51.218;6.786;2023-04-06T12:55:08;16.70;97.70
10583;DHT22;33679;51.218;6.786;2023-04-06T12:57:49;16.70;98.10
10583;DHT22;33679;51.218;6.786;2023-04-06T13:00:29;16.70;98.30
10583;DHT22;33679;51.218;6.786;2023-04-06T13:03:08;16.70;98.40
10583;DHT22;33679;51.218;6.786;2023-04-06T13:05:44;16.80;98.40
10583;DHT22;33679;51.218;6.786;2023-04-06T13:08:19;16.60;98.70
10583;DHT22;33679;51.218;6.786;2023-04-06T13:10:52;16.60;99.10
10583;DHT22;33679;51.218;6.786;2023-04-06T13:13:30;16.60;99.20
10583;DHT22;33679;51.218;6.786;2023-04-06T13:16:07;16.60;99.40
10583;DHT22;33679;51.218;6.786;2023-04-06T13:18:40;16.60;99.40
10583;DHT22;33679;51.218;6.786;2023-04-06T13:21:15;16.60;99.30
10583;DHT22;33679;51.218;6.786;2023-04-06T13:23:48;16.60;99.70
10583;DHT22;33679;51.218;6.786;2023-04-06T13:26:22;16.70;99.90
10583;DHT22;33679;51.218;6.786;2023-04-06T13:29:00;16.60;99.90
10583;DHT22;33679;51.218;6.786;2023-04-06T13:31:38;16.60;99.90
10583;DHT22;33679;51.218;6.786;2023-04-06T13:34:11;16.50;99.90
10583;DHT22;33679;51.218;6.786;2023-04-06T13:36:44;16.60;99.90
10583;DHT22;33679;51.218;6.786;2023-04-06T13:39:17;16.60;99.90
10583;DHT22;33679;51.218;6.786;2023-04-06T13:41:54;16.60;99.90
10583;DHT22;33679;51.218;6.786;2023-04-06T13:44:30;16.50;99.90
10583;DHT22;33679;51.218;6.786;2023-04-06T13:47:06;16.60;99.90
10583;DHT22;33679;51.218;6.786;2023-04-06T13:49:39;16.60;99.90
10583;DHT22;33679;51.218;6.786;2023-04-06T13:52:11;16.60;99.90
10583;DHT22;33679;51.218;6.786;2023-04-06T13:54:48;16.60;99.90
10583;DHT22;33679;51.218;6.786;2023-04-06T13:57:23;16.60;99.90
10583;DHT22;33679;51.218;6.786;2023-04-06T13:59:59;16.40;99.90
10583;DHT22;33679;51.218;6.786;2023-04-06T14:02:32;16.30;99.90
10583;DHT22;33679;51.218;6.786;2023-04-06T14:05:06;16.10;99.90
10583;DHT22;33679;51.218;6.786;2023-04-06T14:07:41;16.00;99.90
10583;DHT22;33679;51.218;6.786;2023-04-06T14:10:14;16.00;99.90
10583;DHT22;33679;51.218;6.786;2023-04-06T14:12:47;16.00;99.90
10583;DHT22;33679;51.218;6.786;2023-04-06T14:15:22;16.00;99.90
10583;DHT22;33679;51.218;6.786;2023-04-06T14:17:55;16.00;99.90
10583;DHT22;33679;51.218;6.786;2023-04-06T14:20:34;16.10;99.90
10583;DHT22;33679;51.218;6.786;2023-04-06T14:23:11;16.10;99.90
10583;DHT22;33679;51.218;6.786;2023-04-06T14:25:48;16.20;99.90
10583;DHT22;33679;51.218;6.786;2023-04-06T14:28:24;16.20;99.90
10583;DHT22;33679;51.218;6.786;2023-04-06T14:31:11;16.20;99.90
10583;DHT22;33679;51.218;6.786;2023-04-06T14:33:50;16.10;99.90
10583;DHT22;33679;51.218;6.786;2023-04-06T14:36:27;16.00;99.90
10583;DHT22;33679;51.218;6.786;2023-04-06T14:39:00;16.00;99.90
10583;DHT22;33679;51.218;6.786;2023-04-06T14:41:48;16.00;99.90
10583;DHT22;33679;51.218;6.786;2023-04-06T14:44:22;15.90;99.90
10583;DHT22;33679;51.218;6.786;2023-04-06T14:46:59;15.80;99.90
10583;DHT22;33679;51.218;6.786;2023-04-06T14:49:46;15.70;99.90
10583;DHT22;33679;51.218;6.786;2023-04-06T14:52:23;15.60;99.90
10583;DHT22;33679;51.218;6.786;2023-04-06T14:54:58;15.40;99.90
10583;DHT22;33679;51.218;6.786;2023-04-06T14:57:33;15.30;99.90
10583;DHT22;33679;51.218;6.786;2023-04-06T15:00:14;15.20;99.90
10583;DHT22;33679;51.218;6.786;2023-04-06T15:02:51;15.10;99.90
10583;DHT22;33679;51.218;6.786;2023-04-06T15:05:29;15.10;99.90
10583;DHT22;33679;51.218;6.786;2023-04-06T15:08:10;15.00;99.90
10583;DHT22;33679;51.218;6.786;2023-04-06T15:11:01;14.90;99.90
10583;DHT22;33679;51.218;6.786;2023-04-06T15:13:38;14.90;99.90
10583;DHT22;33679;51.218;6.786;2023-04-06T15:16:23;14.80;99.90
10583;DHT22;33679;51.218;6.786;2023-04-06T15:19:21;14.80;99.90
10583;DHT22;33679;51.218;6.786;2023-04-06T15:22:05;14.70;99.90
10583;DHT22;33679;51.218;6.786;2023-04-06T15:24:49;14.60;99.90
10583;DHT22;33679;51.218;6.786;2023-04-06T15:27:27;14.50;99.90
10583;DHT22;33679;51.218;6.786;2023-04-06T15:30:17;14.40;99.90
10583;DHT22;33679;51.218;6.786;2023-04-06T15:32:54;14.40;99.90
10583;DHT22;33679;51.218;6.786;2023-04-06T15:35:32;14.40;99.90
10583;DHT22;33679;51.218;6.786;2023-04-06T15:38:15;14.40;99.90
10583;DHT22;33679;51.218;6.786;2023-04-06T15:40:49;14.40;99.90
10583;DHT22;33679;51.218;6.786;2023-04-06T15:43:23;14.30;99.90
10583;DHT22;33679;51.218;6.786;2023-04-06T15:45:57;14.30;99.90
10583;DHT22;33679;51.218;6.786;2023-04-06T15:48:30;14.30;99.90
10583;DHT22;33679;51.218;6.786;2023-04-06T15:51:12;14.30;99.90
10583;DHT22;33679;51.218;6.786;2023-04-06T15:53:52;14.30;99.90
10583;DHT22;33679;51.218;6.786;2023-04-06T15:56:32;14.20;99.90
10583;DHT22;33679;51.218;6.786;2023-04-06T15:59:18;14.20;99.90
10583;DHT22;33679;51.218;6.786;2023-04-06T16:02:09;14.10;99.90
10583;DHT22;33679;51.218;6.786;2023-04-06T16:04:58;14.00;99.90
10583;DHT22;33679;51.218;6.786;2023-04-06T16:10:31;14.00;99.90
10583;DHT22;33679;51.218;6.786;2023-04-06T16:13:06;14.20;99.90
10583;DHT22;33679;51.218;6.786;2023-04-06T16:15:45;14.10;99.90
10583;DHT22;33679;51.218;6.786;2023-04-06T16:18:24;14.00;99.90
10583;DHT22;33679;51.218;6.786;2023-04-06T16:21:01;13.90;99.90
10583;DHT22;33679;51.218;6.786;2023-04-06T16:23:36;13.80;99.90
10583;DHT22;33679;51.218;6.786;2023-04-06T16:26:13;13.80;99.90
10583;DHT22;33679;51.218;6.786;2023-04-06T16:28:51;13.70;99.90
10583;DHT22;33679;51.218;6.786;2023-04-06T16:31:24;13.60;99.90
10583;DHT22;33679;51.218;6.786;2023-04-06T16:33:57;13.50;99.90
10583;DHT22;33679;51.218;6.786;2023-04-06T16:36:31;13.50;99.90
10583;DHT22;33679;51.218;6.786;2023-04-06T16:39:03;13.40;99.90
10583;DHT22;33679;51.218;6.786;2023-04-06T16:41:40;13.40;99.90
10583;DHT22;33679;51.218;6.786;2023-04-06T16:44:13;13.60;99.90